createdAt,value
2019-03-29T00:00:12.282Z,7.97
2019-03-29T00:02:45.053Z,8.40
2019-03-29T00:05:15.286Z,7.63
2019-03-29T00:07:45.276Z,8.00
2019-03-29T00:10:16.344Z,6.70
2019-03-29T00:12:46.643Z,7.30
2019-03-29T00:15:17.482Z,7.80
2019-03-29T00:17:47.434Z,7.03
2019-03-29T00:20:17.512Z,7.70
2019-03-29T00:22:47.736Z,7.50
2019-03-29T00:25:17.877Z,8.20
2019-03-29T00:27:48.827Z,7.80
2019-03-29T00:30:22.110Z,7.63
2019-03-29T00:32:53.264Z,8.27
2019-03-29T00:35:23.610Z,8.17
2019-03-29T00:37:55.638Z,8.87
2019-03-29T00:40:26.386Z,9.10
2019-03-29T00:43:01.620Z,8.80
2019-03-29T00:45:32.602Z,7.93
2019-03-29T00:48:02.616Z,8.53
2019-03-29T00:50:33.044Z,8.20
2019-03-29T00:53:03.182Z,7.47
2019-03-29T00:55:33.158Z,7.73
2019-03-29T00:58:03.244Z,7.60
2019-03-29T01:00:33.724Z,7.60
2019-03-29T01:03:04.454Z,7.83
2019-03-29T01:05:35.257Z,7.50
2019-03-29T01:08:08.281Z,7.23
2019-03-29T01:10:38.896Z,7.50
2019-03-29T01:13:09.851Z,7.17
2019-03-29T01:15:40.838Z,8.27
2019-03-29T01:18:11.815Z,8.03
2019-03-29T01:20:42.150Z,8.00
2019-03-29T01:23:12.241Z,7.93
2019-03-29T01:25:42.255Z,7.30
2019-03-29T01:28:12.642Z,6.97
2019-03-29T01:30:43.345Z,6.80
2019-03-29T01:33:14.172Z,5.90
2019-03-29T01:35:44.872Z,6.27
2019-03-29T01:38:21.702Z,5.37
2019-03-29T01:40:50.885Z,5.77
2019-03-29T01:43:21.047Z,5.60
2019-03-29T01:45:51.724Z,5.50
2019-03-29T01:48:23.109Z,5.27
2019-03-29T01:51:00.022Z,5.23
2019-03-29T01:53:31.008Z,4.83
2019-03-29T01:56:05.209Z,4.83
2019-03-29T01:58:36.239Z,5.07
2019-03-29T02:01:09.064Z,4.90
2019-03-29T02:03:43.607Z,4.77
2019-03-29T02:06:15.549Z,4.57
2019-03-29T02:08:46.658Z,4.87
2019-03-29T02:11:21.923Z,4.50
2019-03-29T02:13:56.019Z,4.10
2019-03-29T02:16:26.332Z,4.80
2019-03-29T02:18:56.326Z,4.17
2019-03-29T02:21:26.693Z,4.33
2019-03-29T02:23:57.084Z,4.80
2019-03-29T02:26:27.487Z,4.30
2019-03-29T02:28:57.905Z,4.40
2019-03-29T02:31:29.058Z,4.40
2019-03-29T02:34:01.743Z,4.60
2019-03-29T02:36:34.740Z,4.43
2019-03-29T02:39:11.383Z,4.27
2019-03-29T02:41:41.243Z,4.10
2019-03-29T02:44:11.102Z,4.40
2019-03-29T02:46:41.007Z,4.30
2019-03-29T02:49:12.722Z,4.57
2019-03-29T02:51:42.478Z,4.47
2019-03-29T02:54:12.389Z,4.47
2019-03-29T02:56:42.258Z,4.20
2019-03-29T02:59:12.176Z,5.10
2019-03-29T03:01:42.253Z,4.60
2019-03-29T03:04:12.126Z,4.23
2019-03-29T03:06:42.000Z,4.30
2019-03-29T03:09:14.324Z,4.27
2019-03-29T03:11:43.622Z,4.60
2019-03-29T03:14:13.636Z,4.67
2019-03-29T03:16:43.558Z,3.90
2019-03-29T03:19:13.382Z,4.00
2019-03-29T03:21:43.521Z,4.70
2019-03-29T03:24:13.388Z,4.57
2019-03-29T03:26:43.205Z,4.50
2019-03-29T03:29:13.290Z,4.17
2019-03-29T03:31:43.154Z,4.40
2019-03-29T03:34:12.980Z,5.03
2019-03-29T03:36:42.837Z,4.90
2019-03-29T03:39:30.196Z,4.63
2019-03-29T03:41:44.295Z,4.23
2019-03-29T03:44:14.139Z,4.10
2019-03-29T03:46:44.040Z,3.80
2019-03-29T03:49:13.856Z,4.20
2019-03-29T03:51:43.654Z,4.10
2019-03-29T03:54:13.532Z,4.77
2019-03-29T03:56:43.987Z,4.70
2019-03-29T03:59:14.111Z,4.97
2019-03-29T04:01:44.013Z,4.83
2019-03-29T04:04:13.978Z,4.57
2019-03-29T04:06:43.830Z,4.27
2019-03-29T04:09:13.700Z,4.20
2019-03-29T04:11:43.799Z,4.70
2019-03-29T04:14:13.610Z,4.53
2019-03-29T04:16:43.547Z,4.20
2019-03-29T04:19:13.479Z,5.00
2019-03-29T04:21:43.362Z,4.07
2019-03-29T04:24:13.259Z,4.53
2019-03-29T04:26:43.181Z,3.93
2019-03-29T04:29:12.993Z,4.50
2019-03-29T04:31:42.865Z,4.03
2019-03-29T04:34:12.878Z,4.40
2019-03-29T04:36:42.723Z,4.97
2019-03-29T04:39:12.616Z,4.80
2019-03-29T04:41:42.577Z,4.67
2019-03-29T04:44:12.406Z,4.73
2019-03-29T04:46:42.263Z,4.43
2019-03-29T04:49:12.357Z,4.37
2019-03-29T04:51:42.617Z,5.10
2019-03-29T04:54:12.488Z,4.93
2019-03-29T04:56:42.494Z,5.23
2019-03-29T04:59:12.387Z,4.80
2019-03-29T05:01:42.263Z,4.53
2019-03-29T05:04:12.250Z,4.87
2019-03-29T05:06:42.095Z,4.67
2019-03-29T05:09:11.988Z,4.53
2019-03-29T05:11:42.002Z,4.47
2019-03-29T05:14:11.805Z,4.03
2019-03-29T05:16:41.677Z,4.43
2019-03-29T05:19:11.747Z,4.43
2019-03-29T05:21:41.670Z,5.07
2019-03-29T05:24:11.558Z,4.30
2019-03-29T05:26:41.362Z,4.10
2019-03-29T05:29:11.181Z,4.00
2019-03-29T05:31:41.065Z,4.67
2019-03-29T05:34:10.907Z,4.07
2019-03-29T05:36:40.691Z,4.43
2019-03-29T05:39:10.552Z,4.70
2019-03-29T05:41:40.507Z,4.20
2019-03-29T05:44:10.387Z,4.57
2019-03-29T05:46:40.214Z,4.00
2019-03-29T05:49:10.208Z,3.67
2019-03-29T05:51:40.085Z,3.80
2019-03-29T05:54:09.996Z,3.80
2019-03-29T05:56:39.938Z,4.37
2019-03-29T05:59:09.776Z,3.97
2019-03-29T06:01:39.629Z,4.07
2019-03-29T06:04:09.609Z,3.43
2019-03-29T06:06:39.488Z,4.10
2019-03-29T06:09:09.403Z,3.87
2019-03-29T06:11:39.267Z,3.87
2019-03-29T06:14:09.085Z,3.40
2019-03-29T06:16:39.579Z,3.47
2019-03-29T06:19:09.637Z,3.47
2019-03-29T06:21:39.513Z,3.40
2019-03-29T06:24:09.416Z,3.30
2019-03-29T06:26:39.592Z,3.50
2019-03-29T06:29:09.461Z,3.53
2019-03-29T06:31:39.430Z,3.47
2019-03-29T06:34:09.636Z,3.50
2019-03-29T06:36:39.980Z,3.27
2019-03-29T06:39:11.202Z,3.40
2019-03-29T06:41:41.040Z,3.50
2019-03-29T06:44:10.874Z,3.27
2019-03-29T06:46:40.811Z,3.63
2019-03-29T06:49:10.851Z,3.50
2019-03-29T06:51:40.680Z,3.20
2019-03-29T06:54:10.782Z,3.30
2019-03-29T06:56:40.650Z,3.43
2019-03-29T06:59:10.447Z,2.80
2019-03-29T07:01:40.588Z,2.70
2019-03-29T07:04:10.726Z,2.80
2019-03-29T07:06:40.556Z,2.80
2019-03-29T07:09:10.786Z,2.60
2019-03-29T07:11:40.612Z,2.93
2019-03-29T07:14:10.479Z,2.90
2019-03-29T07:16:40.421Z,2.77
2019-03-29T07:19:10.424Z,2.57
2019-03-29T07:21:40.321Z,2.57
2019-03-29T07:24:10.462Z,2.50
2019-03-29T07:26:40.328Z,2.53
2019-03-29T07:29:10.156Z,2.70
2019-03-29T07:31:40.060Z,2.67
2019-03-29T07:34:10.137Z,2.70
2019-03-29T07:36:39.998Z,2.83
2019-03-29T07:39:09.872Z,3.00
2019-03-29T07:41:39.767Z,2.50
2019-03-29T07:44:09.631Z,2.50
2019-03-29T07:46:39.542Z,2.50
2019-03-29T07:49:09.625Z,2.83
2019-03-29T07:51:39.447Z,2.53
2019-03-29T07:54:09.349Z,2.37
2019-03-29T07:56:39.456Z,2.70
2019-03-29T07:59:09.354Z,2.57
2019-03-29T08:01:39.251Z,2.30
2019-03-29T08:04:10.047Z,2.40
2019-03-29T08:06:39.835Z,2.13
2019-03-29T08:09:21.794Z,2.20
2019-03-29T08:11:46.472Z,2.77
2019-03-29T08:14:14.961Z,2.30
2019-03-29T08:16:44.843Z,2.67
2019-03-29T08:19:14.686Z,2.47
2019-03-29T08:21:44.518Z,2.50
2019-03-29T08:24:14.499Z,2.60
2019-03-29T08:26:44.351Z,2.60
2019-03-29T08:29:14.217Z,2.70
2019-03-29T08:31:44.194Z,2.80
2019-03-29T08:34:14.038Z,2.60
2019-03-29T08:36:43.924Z,2.77
2019-03-29T08:39:27.423Z,2.70
2019-03-29T08:41:59.057Z,2.33
2019-03-29T08:44:17.298Z,2.57
2019-03-29T08:46:47.198Z,3.10
2019-03-29T08:49:17.314Z,2.23
2019-03-29T08:51:47.112Z,2.90
2019-03-29T08:54:16.992Z,2.77
2019-03-29T08:56:46.821Z,2.83
2019-03-29T08:59:17.683Z,3.10
2019-03-29T09:01:47.766Z,3.00
2019-03-29T09:04:17.832Z,2.60
2019-03-29T09:06:53.797Z,2.70
2019-03-29T09:09:19.417Z,2.80
2019-03-29T09:11:49.278Z,2.77
2019-03-29T09:14:19.140Z,2.60
2019-03-29T09:16:49.005Z,2.67
2019-03-29T09:19:18.850Z,2.57
2019-03-29T09:21:48.671Z,2.30
2019-03-29T09:24:22.213Z,2.23
2019-03-29T09:26:50.144Z,2.13
2019-03-29T09:29:20.094Z,2.60
2019-03-29T09:31:49.935Z,2.20
2019-03-29T09:34:19.789Z,2.30
2019-03-29T09:36:49.637Z,2.37
2019-03-29T09:39:19.562Z,2.40
2019-03-29T09:41:49.424Z,2.63
2019-03-29T09:44:19.554Z,2.10
2019-03-29T09:46:49.515Z,2.50
2019-03-29T09:49:19.347Z,2.30
2019-03-29T09:51:49.389Z,2.40
2019-03-29T09:54:20.597Z,2.80
2019-03-29T09:56:50.705Z,3.13
2019-03-29T09:59:23.129Z,3.03
2019-03-29T10:01:53.945Z,3.20
2019-03-29T10:04:23.904Z,3.47
2019-03-29T10:06:53.931Z,3.50
2019-03-29T10:09:23.801Z,3.10
2019-03-29T10:11:53.614Z,2.60
2019-03-29T10:14:23.454Z,3.10
2019-03-29T10:16:53.355Z,3.07
2019-03-29T10:19:23.170Z,2.30
2019-03-29T10:21:53.231Z,2.10
2019-03-29T10:24:23.156Z,2.53
2019-03-29T10:26:53.408Z,2.50
2019-03-29T10:29:23.428Z,2.30
2019-03-29T10:31:53.322Z,2.60
2019-03-29T10:34:23.175Z,2.27
2019-03-29T10:36:53.018Z,2.37
2019-03-29T10:39:26.112Z,2.03
2019-03-29T10:41:54.465Z,2.67
2019-03-29T10:44:24.305Z,2.33
2019-03-29T10:46:54.250Z,2.57
2019-03-29T10:49:24.355Z,2.60
2019-03-29T10:51:54.177Z,2.00
2019-03-29T10:54:24.054Z,2.70
2019-03-29T10:56:53.938Z,2.43
2019-03-29T10:59:27.544Z,2.70
2019-03-29T11:01:55.528Z,2.70
2019-03-29T11:04:25.403Z,2.63
2019-03-29T11:06:55.254Z,2.60
2019-03-29T11:09:25.263Z,2.57
2019-03-29T11:11:55.080Z,3.10
2019-03-29T11:14:24.920Z,3.07
2019-03-29T11:16:55.245Z,2.77
2019-03-29T11:19:25.126Z,3.40
2019-03-29T11:21:54.988Z,2.90
2019-03-29T11:24:25.072Z,2.70
2019-03-29T11:26:54.881Z,2.80
2019-03-29T11:29:24.834Z,3.07
2019-03-29T11:31:54.953Z,2.97
2019-03-29T11:34:24.773Z,3.03
2019-03-29T11:36:54.666Z,3.90
2019-03-29T11:39:27.491Z,3.50
2019-03-29T11:41:56.432Z,3.90
2019-03-29T11:44:26.484Z,3.73
2019-03-29T11:46:56.368Z,4.27
2019-03-29T11:49:26.233Z,4.17
2019-03-29T11:51:56.173Z,4.00
2019-03-29T11:54:26.055Z,4.20
2019-03-29T11:56:55.862Z,4.53
2019-03-29T11:59:25.777Z,4.60
2019-03-29T12:01:55.787Z,4.77
2019-03-29T12:04:25.794Z,4.40
2019-03-29T12:06:55.719Z,4.67
2019-03-29T12:09:25.669Z,4.73
2019-03-29T12:11:55.546Z,5.23
2019-03-29T12:14:25.428Z,4.90
2019-03-29T12:16:55.370Z,5.47
2019-03-29T12:19:25.375Z,5.40
2019-03-29T12:21:55.470Z,5.80
2019-03-29T12:24:25.419Z,6.33
2019-03-29T12:26:55.316Z,5.90
2019-03-29T12:29:25.359Z,6.20
2019-03-29T12:31:55.462Z,6.67
2019-03-29T12:34:25.315Z,6.13
2019-03-29T12:36:55.276Z,6.63
2019-03-29T12:39:25.149Z,6.70
2019-03-29T12:41:55.007Z,6.70
2019-03-29T12:44:25.138Z,6.57
2019-03-29T12:46:55.012Z,6.37
2019-03-29T12:49:24.895Z,6.87
2019-03-29T12:51:54.750Z,7.40
2019-03-29T12:54:24.740Z,7.27
2019-03-29T12:56:54.802Z,7.27
2019-03-29T12:59:24.772Z,7.77
2019-03-29T13:01:54.664Z,9.07
2019-03-29T13:04:24.535Z,7.97
2019-03-29T13:06:54.566Z,7.50
2019-03-29T13:09:24.445Z,7.17
2019-03-29T13:11:54.383Z,6.73
2019-03-29T13:14:24.669Z,6.90
2019-03-29T13:16:54.624Z,7.17
2019-03-29T13:19:24.498Z,7.40
2019-03-29T13:21:54.387Z,6.73
2019-03-29T13:24:24.302Z,6.70
2019-03-29T13:26:54.513Z,7.40
2019-03-29T13:29:24.781Z,6.70
2019-03-29T13:31:54.657Z,6.63
2019-03-29T13:34:24.481Z,7.07
2019-03-29T13:36:54.525Z,6.70
2019-03-29T13:39:24.518Z,7.00
2019-03-29T13:41:54.381Z,8.20
2019-03-29T13:44:26.779Z,7.70
2019-03-29T13:46:56.001Z,7.17
2019-03-29T13:49:26.114Z,7.17
2019-03-29T13:51:55.952Z,8.17
2019-03-29T13:54:25.800Z,7.93
2019-03-29T13:56:55.815Z,8.53
2019-03-29T13:59:25.639Z,9.50
2019-03-29T14:01:55.512Z,8.20
2019-03-29T14:04:25.579Z,8.73
2019-03-29T14:06:55.406Z,8.33
2019-03-29T14:09:25.356Z,8.77
2019-03-29T14:11:55.278Z,8.80
2019-03-29T14:14:37.622Z,8.90
2019-03-29T14:16:57.102Z,9.73
2019-03-29T14:19:26.926Z,9.23
2019-03-29T14:21:56.792Z,8.97
2019-03-29T14:24:26.906Z,8.77
2019-03-29T14:26:56.753Z,9.70
2019-03-29T14:29:26.590Z,9.67
2019-03-29T14:31:56.443Z,8.33
2019-03-29T14:34:26.507Z,8.90
2019-03-29T14:36:59.243Z,9.13
2019-03-29T14:39:29.075Z,9.13
2019-03-29T14:42:00.739Z,9.10
2019-03-29T14:44:30.603Z,8.63
2019-03-29T14:47:00.523Z,9.60
2019-03-29T14:49:30.620Z,9.67
2019-03-29T14:52:00.638Z,10.40
2019-03-29T14:54:30.716Z,10.10
2019-03-29T14:57:00.928Z,9.17
2019-03-29T14:59:30.796Z,9.60
2019-03-29T15:02:00.648Z,9.83
2019-03-29T15:04:30.482Z,9.67
2019-03-29T15:07:00.376Z,9.60
2019-03-29T15:09:30.461Z,10.30
2019-03-29T15:12:00.264Z,10.27
2019-03-29T15:14:30.118Z,10.23
2019-03-29T15:17:00.245Z,10.50
2019-03-29T15:19:30.225Z,10.30
2019-03-29T15:22:00.053Z,10.37
2019-03-29T15:24:29.949Z,10.50
2019-03-29T15:26:59.781Z,10.67
2019-03-29T15:29:29.677Z,9.67
2019-03-29T15:31:59.583Z,10.30
2019-03-29T15:34:29.607Z,11.37
2019-03-29T15:36:59.538Z,10.93
2019-03-29T15:39:29.447Z,10.70
2019-03-29T15:41:59.633Z,9.60
2019-03-29T15:44:29.474Z,10.30
2019-03-29T15:46:59.408Z,10.70
2019-03-29T15:49:29.441Z,10.60
2019-03-29T15:51:59.289Z,10.00
2019-03-29T15:54:29.141Z,10.77
2019-03-29T15:56:59.251Z,9.77
2019-03-29T15:59:29.131Z,10.90
2019-03-29T16:01:59.019Z,9.83
2019-03-29T16:04:29.044Z,10.53
2019-03-29T16:06:58.936Z,9.90
2019-03-29T16:09:28.891Z,10.47
2019-03-29T16:11:58.917Z,10.30
2019-03-29T16:14:28.875Z,10.07
2019-03-29T16:16:58.844Z,10.17
2019-03-29T16:19:28.815Z,9.90
2019-03-29T16:21:58.664Z,10.27
2019-03-29T16:24:28.575Z,10.40
2019-03-29T16:26:58.536Z,11.00
2019-03-29T16:29:28.383Z,10.17
2019-03-29T16:31:58.293Z,10.47
2019-03-29T16:34:28.243Z,11.37
2019-03-29T16:36:58.058Z,10.93
2019-03-29T16:39:27.972Z,9.70
2019-03-29T16:41:57.883Z,10.70
2019-03-29T16:44:27.731Z,10.30
2019-03-29T16:46:57.618Z,9.73
2019-03-29T16:49:27.674Z,9.93
2019-03-29T16:51:57.514Z,9.70
2019-03-29T16:54:27.374Z,10.23
2019-03-29T16:56:57.502Z,10.00
2019-03-29T16:59:27.347Z,10.27
2019-03-29T17:01:57.278Z,9.73
2019-03-29T17:04:27.392Z,10.47
2019-03-29T17:06:57.236Z,10.47
2019-03-29T17:09:27.358Z,10.77
2019-03-29T17:11:57.408Z,10.80
2019-03-29T17:14:27.240Z,10.30
2019-03-29T17:16:57.236Z,11.63
2019-03-29T17:19:27.188Z,10.90
2019-03-29T17:21:57.005Z,10.90
2019-03-29T17:24:26.953Z,11.27
2019-03-29T17:26:57.048Z,11.03
2019-03-29T17:29:26.907Z,11.07
2019-03-29T17:31:56.744Z,10.63
2019-03-29T17:34:26.845Z,11.30
2019-03-29T17:36:56.724Z,11.40
2019-03-29T17:39:26.587Z,12.13
2019-03-29T17:41:56.864Z,11.37
2019-03-29T17:44:26.696Z,11.57
2019-03-29T17:46:56.605Z,10.27
2019-03-29T17:49:26.471Z,11.97
2019-03-29T17:51:56.298Z,13.03
2019-03-29T17:54:26.173Z,13.67
2019-03-29T17:56:56.069Z,12.13
2019-03-29T17:59:25.925Z,11.77
2019-03-29T18:02:08.844Z,11.83
2019-03-29T18:04:27.661Z,11.67
2019-03-29T18:06:57.476Z,12.33
2019-03-29T18:09:27.374Z,12.47
2019-03-29T18:11:57.234Z,11.50
2019-03-29T18:14:27.080Z,12.37
2019-03-29T18:16:56.948Z,13.33
2019-03-29T18:19:26.802Z,13.63
2019-03-29T18:21:56.654Z,32.27
2019-03-29T18:24:26.569Z,44.93
2019-03-29T18:26:56.646Z,17.77
2019-03-29T18:29:26.451Z,15.40
2019-03-29T18:31:56.336Z,19.93
2019-03-29T18:34:26.491Z,13.53
2019-03-29T18:36:58.146Z,12.63
2019-03-29T18:39:28.464Z,13.03
2019-03-29T18:41:58.486Z,13.30
2019-03-29T18:44:28.324Z,13.20
2019-03-29T18:46:58.459Z,13.63
2019-03-29T18:49:28.298Z,13.23
2019-03-29T18:51:58.169Z,12.67
2019-03-29T18:54:28.071Z,12.97
2019-03-29T18:56:57.882Z,13.07
2019-03-29T18:59:27.826Z,13.60
2019-03-29T19:01:58.053Z,13.80
2019-03-29T19:04:27.903Z,14.83
2019-03-29T19:06:57.711Z,14.47
2019-03-29T19:09:27.754Z,15.33
2019-03-29T19:11:57.631Z,15.27
2019-03-29T19:14:27.444Z,15.50
2019-03-29T19:16:59.170Z,16.33
2019-03-29T19:19:29.139Z,15.47
2019-03-29T19:21:59.126Z,16.30
2019-03-29T19:24:29.039Z,16.97
2019-03-29T19:26:58.921Z,17.47
2019-03-29T19:29:28.930Z,17.73
2019-03-29T19:31:58.770Z,17.33
2019-03-29T19:34:28.615Z,18.03
2019-03-29T19:37:01.449Z,19.87
2019-03-29T19:39:30.327Z,19.53
2019-03-29T19:42:00.332Z,22.33
2019-03-29T19:44:30.141Z,21.63
2019-03-29T19:47:12.760Z,20.30
2019-03-29T19:49:33.945Z,22.33
2019-03-29T19:52:03.965Z,21.90
2019-03-29T19:54:33.843Z,23.17
2019-03-29T19:57:03.702Z,23.70
2019-03-29T19:59:33.805Z,22.23
2019-03-29T20:02:03.775Z,23.10
2019-03-29T20:04:33.617Z,24.97
2019-03-29T20:07:04.152Z,24.23
2019-03-29T20:09:34.090Z,24.30
2019-03-29T20:12:03.960Z,24.07
2019-03-29T20:14:33.913Z,23.33
2019-03-29T20:17:03.840Z,24.57
2019-03-29T20:19:33.748Z,24.30
2019-03-29T20:22:03.622Z,23.67
2019-03-29T20:24:33.585Z,23.10
2019-03-29T20:27:03.394Z,22.67
2019-03-29T20:29:33.452Z,22.70
2019-03-29T20:32:03.435Z,22.07
2019-03-29T20:34:33.438Z,24.23
2019-03-29T20:37:03.324Z,24.27
2019-03-29T20:39:33.305Z,22.63
2019-03-29T20:42:03.257Z,24.57
2019-03-29T20:44:33.081Z,23.83
2019-03-29T20:47:03.052Z,22.43
2019-03-29T20:49:32.962Z,23.83
2019-03-29T20:52:03.085Z,22.37
2019-03-29T20:54:33.013Z,23.47
2019-03-29T20:57:02.930Z,23.60
2019-03-29T20:59:32.927Z,23.03
2019-03-29T21:02:02.831Z,23.53
2019-03-29T21:04:32.693Z,22.37
2019-03-29T21:07:02.612Z,23.87
2019-03-29T21:09:32.516Z,22.97
2019-03-29T21:12:02.513Z,23.93
2019-03-29T21:14:32.370Z,24.37
2019-03-29T21:17:02.303Z,25.20
2019-03-29T21:19:32.175Z,24.63
2019-03-29T21:22:01.994Z,25.03
2019-03-29T21:24:31.934Z,25.27
2019-03-29T21:27:01.944Z,24.87
2019-03-29T21:29:32.074Z,25.47
2019-03-29T21:32:01.950Z,25.57
2019-03-29T21:34:31.867Z,25.40
2019-03-29T21:37:01.936Z,24.73
2019-03-29T21:39:31.819Z,24.83
2019-03-29T21:42:01.716Z,24.80
2019-03-29T21:44:31.749Z,25.67
2019-03-29T21:47:01.709Z,25.07
2019-03-29T21:49:31.589Z,25.27
2019-03-29T21:52:01.645Z,24.93
2019-03-29T21:54:31.656Z,24.67
2019-03-29T21:57:01.631Z,24.27
2019-03-29T21:59:31.709Z,26.60
2019-03-29T22:02:01.607Z,25.27
2019-03-29T22:04:31.406Z,25.37
2019-03-29T22:07:01.335Z,26.77
2019-03-29T22:09:37.262Z,26.73
2019-03-29T22:12:03.073Z,25.63
2019-03-29T22:14:32.931Z,27.13
2019-03-29T22:17:02.897Z,26.67
2019-03-29T22:19:32.951Z,25.93
2019-03-29T22:22:02.859Z,26.60
2019-03-29T22:24:32.768Z,28.67
2019-03-29T22:27:02.901Z,26.17
2019-03-29T22:29:32.736Z,25.10
2019-03-29T22:32:02.595Z,26.13
2019-03-29T22:34:32.619Z,26.73
2019-03-29T22:37:02.623Z,28.03
2019-03-29T22:39:32.493Z,26.10
2019-03-29T22:42:02.547Z,26.30
2019-03-29T22:44:32.481Z,27.23
2019-03-29T22:47:02.326Z,24.70
2019-03-29T22:49:32.370Z,26.73
2019-03-29T22:52:02.340Z,26.13
2019-03-29T22:54:32.249Z,26.17
2019-03-29T22:57:02.148Z,26.33
2019-03-29T22:59:32.965Z,25.40
2019-03-29T23:02:03.098Z,26.43
2019-03-29T23:04:32.952Z,25.40
2019-03-29T23:07:02.811Z,24.80
2019-03-29T23:09:32.871Z,26.50
2019-03-29T23:12:02.809Z,24.87
2019-03-29T23:14:32.610Z,24.70
2019-03-29T23:17:02.557Z,24.60
2019-03-29T23:19:32.397Z,25.60
2019-03-29T23:22:02.375Z,25.37
2019-03-29T23:24:32.341Z,24.90
2019-03-29T23:27:02.299Z,24.27
2019-03-29T23:29:32.229Z,23.80
2019-03-29T23:32:02.051Z,23.77
2019-03-29T23:34:31.888Z,24.33
2019-03-29T23:37:01.974Z,24.33
2019-03-29T23:39:31.804Z,23.83
2019-03-29T23:42:01.677Z,24.40
2019-03-29T23:44:31.812Z,24.37
2019-03-29T23:47:01.701Z,22.20
2019-03-29T23:49:31.569Z,23.37
2019-03-29T23:52:01.564Z,22.87
2019-03-29T23:54:31.388Z,23.87
2019-03-29T23:57:01.229Z,22.57
2019-03-29T23:59:31.246Z,23.47
